Naples, Italy

2:25 PM CET on December 11, 2016 (GMT +0100)
Calata San Marco | | Change Station

Elev 0 ft 40.84 °N, 14.25 °E | Updated 10 minutes ago

Fog
Fog
61.3 °F
Feels Like 61.3 °F
N
3.7
Wind Variable Wind from SSW
Gusts 8.1 mph

Today
High -- | Low -- °F
--% Chance of Precip.
Yesterday
High -- | Low -- °F
Precip. -- in
Pressure 30.15 in
Visibility 4.3 miles
Clouds
Dew Point 51 °F
Humidity 68%
Rainfall Not available.
Snow Depth Not available.
7:17 AM 4:35 PM
Waxing Gibbous, 91% visible
METAR LIRM 111255Z 24003KT 7000 NSC 14/11 Q1021 RMK SCT SCT090 VIS MIN 7000 WIND THR06 24003KT WHT
Pressure 30.15 in
Visibility 4.3 miles
Clouds
Dew Point 51 °F
Humidity 68%
Rainfall Not available.
Snow Depth Not available.
7:17 AM 4:35 PM
Waxing Gibbous, 91% visible
METAR LIRM 111255Z 24003KT 7000 NSC 14/11 Q1021 RMK SCT SCT090 VIS MIN 7000 WIND THR06 24003KT WHT

10-Day Weather Forecast

×

Almanac

Astronomy

Dec. 11, 2016 Rise Set
Actual Time
Civil Twilight
Nautical Twilight
Astronomical Twilight
Moon
Length of Visible Light
Length of Day
Tomorrow will be .
, % of the Moon is Illuminated

Today's Extremes

Country Highs Country Lows

Community

WunderPhotos

Upload Photos

1,956,710 photos uploaded!

WunderBlog® & News

Nearby

Air Quality

  Air Quality AQ Index Pollutant
Not available.

Snow Depth

Station Depth Elevation

Earthquake Activity

City Distance Mag. Time & Date
Minimum magnitude displayed is 2.5.

Coastal Water Temperatures

Place Temperature

Stations

Nearby Weather Stations

Station Location Temp. Windchill Dew Point Humidity Wind Precip. Elev Updated Type